createdAt,value
2023-04-11T00:01:42.944Z,69.82
2023-04-11T00:04:12.863Z,69.64
2023-04-11T00:06:44.061Z,69.20
2023-04-11T00:09:13.687Z,68.89
2023-04-11T00:11:42.968Z,68.60
2023-04-11T00:14:17.312Z,68.30
2023-04-11T00:16:49.284Z,68.33
2023-04-11T00:19:25.276Z,68.45
2023-04-11T00:21:57.884Z,67.93
2023-04-11T00:24:32.567Z,67.76
2023-04-11T00:27:01.808Z,68.19
2023-04-11T00:29:33.699Z,68.04
2023-04-11T00:32:03.050Z,68.15
2023-04-11T00:34:33.856Z,68.30
2023-04-11T00:37:05.378Z,68.20
2023-04-11T00:39:35.389Z,68.32
2023-04-11T00:42:09.004Z,69.39
2023-04-11T00:44:39.946Z,68.97
2023-04-11T00:47:15.377Z,69.95
2023-04-11T00:49:45.260Z,69.89
2023-04-11T00:52:16.373Z,70.84
2023-04-11T00:54:52.953Z,70.60
2023-04-11T00:57:27.743Z,71.98
2023-04-11T00:59:58.320Z,71.40
2023-04-11T01:02:27.775Z,71.33
2023-04-11T01:04:58.853Z,71.38
2023-04-11T01:07:33.119Z,71.69
2023-04-11T01:10:15.536Z,71.44
2023-04-11T01:12:46.070Z,70.55
2023-04-11T01:15:15.304Z,70.16
2023-04-11T01:17:45.275Z,70.41
2023-04-11T01:20:28.162Z,70.04
2023-04-11T01:23:04.940Z,69.86
2023-04-11T01:25:36.304Z,69.50
2023-04-11T01:28:06.038Z,69.24
2023-04-11T01:30:35.374Z,68.93
2023-04-11T01:33:10.497Z,68.98
2023-04-11T01:35:40.274Z,68.45
2023-04-11T01:38:20.900Z,68.36
2023-04-11T01:40:53.763Z,67.90
2023-04-11T01:43:33.634Z,67.96
2023-04-11T01:46:04.205Z,67.61
2023-04-11T01:48:36.049Z,67.83
2023-04-11T01:51:10.141Z,68.13
2023-04-11T01:53:39.555Z,68.66
2023-04-11T01:56:12.440Z,69.11
2023-04-11T01:58:41.685Z,69.12
2023-04-11T02:01:12.898Z,69.00
2023-04-11T02:03:42.410Z,69.13
2023-04-11T02:06:11.740Z,69.05
2023-04-11T02:08:47.876Z,68.96
2023-04-11T02:11:19.133Z,69.11
2023-04-11T02:13:52.528Z,69.33
2023-04-11T02:16:52.510Z,69.59
2023-04-11T02:19:27.082Z,69.67
2023-04-11T02:21:56.360Z,69.43
2023-04-11T02:24:25.475Z,69.99
2023-04-11T02:27:08.147Z,70.78
2023-04-11T02:29:37.853Z,70.29
2023-04-11T02:32:07.292Z,69.56
2023-04-11T02:34:37.062Z,69.48
2023-04-11T02:37:06.198Z,68.92
2023-04-11T02:39:36.568Z,68.60
2023-04-11T02:44:48.459Z,68.97
2023-04-11T02:47:20.393Z,69.06
2023-04-11T02:49:50.631Z,69.56
2023-04-11T02:52:25.861Z,69.37
2023-04-11T02:54:55.394Z,68.83
2023-04-11T02:57:26.801Z,68.56
2023-04-11T02:59:57.675Z,68.34
2023-04-11T03:02:35.095Z,67.88
2023-04-11T03:05:04.906Z,67.71
2023-04-11T03:07:40.357Z,68.07
2023-04-11T03:10:12.050Z,68.13
2023-04-11T03:12:48.408Z,68.09
2023-04-11T03:15:17.876Z,67.87
2023-04-11T03:17:47.365Z,68.08
2023-04-11T03:20:19.317Z,68.02
2023-04-11T03:22:56.417Z,68.12
2023-04-11T03:25:27.898Z,68.32
2023-04-11T03:27:59.537Z,68.12
2023-04-11T03:30:29.846Z,68.41
2023-04-11T03:33:00.706Z,68.58
2023-04-11T03:35:36.389Z,68.40
2023-04-11T03:38:05.986Z,68.73
2023-04-11T03:40:41.866Z,70.26
2023-04-11T03:43:17.685Z,69.97
2023-04-11T03:45:47.927Z,70.43
2023-04-11T03:48:33.204Z,71.10
2023-04-11T03:51:13.060Z,71.45
2023-04-11T03:53:52.938Z,71.76
2023-04-11T03:56:36.133Z,71.79
2023-04-11T03:59:07.450Z,72.66
2023-04-11T04:01:49.550Z,72.26
2023-04-11T04:04:19.031Z,71.92
2023-04-11T04:06:56.388Z,72.19
2023-04-11T04:09:32.114Z,71.89
2023-04-11T04:12:07.589Z,72.28
2023-04-11T04:15:02.053Z,74.71
2023-04-11T04:20:13.381Z,75.79
2023-04-11T04:22:47.883Z,74.55
2023-04-11T04:25:20.731Z,75.07
2023-04-11T04:27:53.827Z,75.02
2023-04-11T04:30:28.499Z,74.92
2023-04-11T04:33:12.134Z,74.73
2023-04-11T04:35:51.177Z,73.85
2023-04-11T04:38:21.200Z,73.93
2023-04-11T04:40:56.703Z,74.32
2023-04-11T04:43:31.908Z,74.30
2023-04-11T04:49:02.297Z,75.27
2023-04-11T04:51:32.010Z,75.51
2023-04-11T04:54:01.442Z,74.95
2023-04-11T04:56:30.877Z,75.04
2023-04-11T04:59:01.255Z,74.59
2023-04-11T05:01:34.818Z,74.02
2023-04-11T05:04:10.912Z,72.69
2023-04-11T05:06:51.373Z,72.20
2023-04-11T05:09:26.001Z,71.56
2023-04-11T05:12:01.006Z,70.98
2023-04-11T05:14:37.792Z,70.65
2023-04-11T05:17:09.432Z,71.64
2023-04-11T05:19:43.701Z,71.78
2023-04-11T05:22:13.431Z,71.29
2023-04-11T05:24:59.381Z,71.20
2023-04-11T05:27:29.014Z,70.78
2023-04-11T05:29:59.255Z,70.88
2023-04-11T05:32:35.731Z,70.43
2023-04-11T05:35:05.921Z,70.40
2023-04-11T05:37:57.903Z,70.16
2023-04-11T05:40:27.479Z,69.88
2023-04-11T05:42:56.590Z,69.84
2023-04-11T05:45:33.605Z,69.74
2023-04-11T05:48:06.729Z,68.96
2023-04-11T05:50:36.514Z,68.89
2023-04-11T05:53:05.662Z,67.90
2023-04-11T05:55:35.267Z,67.99
2023-04-11T05:58:04.531Z,66.32
2023-04-11T06:00:33.861Z,65.59
2023-04-11T06:03:05.695Z,65.14
2023-04-11T06:05:34.696Z,64.92
2023-04-11T06:08:05.957Z,64.68
2023-04-11T06:10:35.457Z,65.07
2023-04-11T06:13:04.676Z,64.76
2023-04-11T06:15:34.231Z,65.15
2023-04-11T06:18:06.176Z,64.90
2023-04-11T06:20:40.524Z,65.75
2023-04-11T06:23:09.781Z,65.65
2023-04-11T06:25:39.021Z,65.28
2023-04-11T06:28:08.424Z,64.69
2023-04-11T06:30:37.825Z,64.19
2023-04-11T06:33:09.071Z,63.34
2023-04-11T06:35:38.548Z,62.90
2023-04-11T06:38:13.828Z,62.00
2023-04-11T06:40:43.054Z,61.52
2023-04-11T06:43:12.166Z,61.00
2023-04-11T06:45:54.597Z,61.04
2023-04-11T06:48:26.088Z,60.66
2023-04-11T06:50:55.519Z,60.79
2023-04-11T06:53:24.854Z,59.94
2023-04-11T06:55:54.309Z,58.51
2023-04-11T06:58:23.812Z,58.17
2023-04-11T07:01:11.996Z,57.40
2023-04-11T07:04:08.592Z,56.80
2023-04-11T07:06:37.862Z,56.90
2023-04-11T07:09:10.593Z,57.23
2023-04-11T07:11:40.345Z,57.26
2023-04-11T07:14:09.737Z,57.14
2023-04-11T07:16:39.099Z,56.61
2023-04-11T07:19:10.501Z,56.26
2023-04-11T07:21:40.200Z,56.23
2023-04-11T07:24:10.234Z,56.10
2023-04-11T07:26:41.821Z,55.76
2023-04-11T07:29:13.901Z,55.44
2023-04-11T07:31:45.722Z,55.11
2023-04-11T07:37:00.403Z,54.37
2023-04-11T07:39:30.388Z,53.91
2023-04-11T07:42:00.447Z,53.99
2023-04-11T07:44:44.913Z,52.83
2023-04-11T07:47:14.217Z,52.70
2023-04-11T07:50:01.569Z,51.91
2023-04-11T07:52:32.285Z,52.11
2023-04-11T07:55:20.214Z,52.01
2023-04-11T07:57:54.604Z,51.47
2023-04-11T08:00:25.239Z,51.42
2023-04-11T08:02:54.847Z,50.73
2023-04-11T08:05:32.439Z,50.35
2023-04-11T08:08:01.828Z,50.07
2023-04-11T08:10:36.157Z,49.85
2023-04-11T08:13:05.670Z,49.90
2023-04-11T08:18:33.421Z,49.85
2023-04-11T08:21:04.861Z,49.82
2023-04-11T08:23:47.398Z,50.07
2023-04-11T08:26:21.816Z,49.71
2023-04-11T08:29:10.810Z,49.02
2023-04-11T08:34:20.525Z,48.65
2023-04-11T08:36:51.768Z,48.07
2023-04-11T08:39:26.224Z,48.08
2023-04-11T08:41:55.545Z,47.96
2023-04-11T08:44:24.864Z,46.49
2023-04-11T08:46:59.923Z,46.15
2023-04-11T08:49:29.960Z,45.58
2023-04-11T08:52:06.402Z,45.33
2023-04-11T08:54:35.587Z,45.00
2023-04-11T08:57:05.181Z,44.80
2023-04-11T08:59:40.488Z,44.34
2023-04-11T09:02:11.456Z,43.79
2023-04-11T09:04:46.994Z,42.26
2023-04-11T09:07:18.709Z,41.98
2023-04-11T09:09:48.525Z,42.53
2023-04-11T09:12:21.256Z,42.13
2023-04-11T09:14:50.747Z,41.39
2023-04-11T09:17:19.972Z,41.75
2023-04-11T09:19:59.489Z,41.01
2023-04-11T09:22:44.325Z,40.70
2023-04-11T09:25:13.863Z,40.05
2023-04-11T09:27:44.457Z,38.65
2023-04-11T09:30:24.422Z,37.90
2023-04-11T09:32:55.726Z,37.11
2023-04-11T09:35:28.255Z,36.85
2023-04-11T09:38:03.151Z,35.74
2023-04-11T09:43:12.500Z,35.34
2023-04-11T09:45:53.757Z,35.10
2023-04-11T09:48:43.383Z,34.54
2023-04-11T09:51:28.016Z,34.70
2023-04-11T09:54:04.508Z,34.61
2023-04-11T09:56:35.737Z,34.93
2023-04-11T09:59:10.628Z,34.38
2023-04-11T10:01:41.017Z,34.55
2023-04-11T10:04:15.584Z,35.04
2023-04-11T10:06:57.318Z,34.26
2023-04-11T10:09:28.676Z,35.48
2023-04-11T10:11:58.058Z,34.25
2023-04-11T10:14:50.248Z,34.41
2023-04-11T10:17:23.616Z,34.75
2023-04-11T10:20:05.266Z,35.47
2023-04-11T10:23:02.614Z,35.29
2023-04-11T10:25:51.274Z,35.00
2023-04-11T10:28:38.143Z,34.61
2023-04-11T10:31:17.117Z,33.56
2023-04-11T10:34:15.069Z,33.96
2023-04-11T10:37:06.012Z,34.57
2023-04-11T10:40:10.061Z,34.16
2023-04-11T10:42:43.103Z,33.63
2023-04-11T10:45:24.085Z,34.16
2023-04-11T10:48:12.008Z,33.88
2023-04-11T10:50:46.015Z,33.56
2023-04-11T10:53:36.780Z,34.34
2023-04-11T10:56:06.696Z,33.62
2023-04-11T10:58:40.131Z,33.96
2023-04-11T11:01:32.100Z,33.93
2023-04-11T11:04:12.675Z,34.18
2023-04-11T11:06:47.560Z,34.11
2023-04-11T11:09:30.870Z,34.49
2023-04-11T11:12:10.759Z,34.43
2023-04-11T11:14:44.103Z,34.28
2023-04-11T11:17:15.404Z,34.55
2023-04-11T11:19:46.347Z,33.94
2023-04-11T11:22:25.199Z,33.35
2023-04-11T11:25:10.156Z,33.22
2023-04-11T11:27:39.644Z,33.44
2023-04-11T11:30:17.798Z,32.42
2023-04-11T11:32:47.198Z,32.70
2023-04-11T11:35:16.453Z,32.55
2023-04-11T11:37:53.995Z,32.14
2023-04-11T11:40:29.631Z,32.27
2023-04-11T11:45:36.420Z,32.56
2023-04-11T11:48:05.893Z,32.93
2023-04-11T11:50:35.408Z,32.66
2023-04-11T11:53:15.622Z,31.81
2023-04-11T11:55:46.893Z,32.47
2023-04-11T11:58:16.965Z,32.09
2023-04-11T12:00:54.264Z,31.76
2023-04-11T12:03:25.514Z,31.84
2023-04-11T12:05:57.880Z,32.70
2023-04-11T12:08:27.185Z,33.01
2023-04-11T12:10:56.442Z,33.14
2023-04-11T12:13:27.765Z,32.51
2023-04-11T12:16:02.428Z,33.02
2023-04-11T12:18:36.831Z,32.70
2023-04-11T12:21:06.326Z,33.24
2023-04-11T12:23:35.837Z,33.04
2023-04-11T12:26:05.505Z,33.52
2023-04-11T12:28:34.799Z,33.40
2023-04-11T12:31:12.767Z,32.96
2023-04-11T12:33:47.094Z,33.12
2023-04-11T12:36:17.509Z,33.34
2023-04-11T12:38:46.667Z,32.62
2023-04-11T12:41:31.785Z,33.17
2023-04-11T12:44:06.858Z,33.28
2023-04-11T12:52:17.670Z,33.33
2023-04-11T12:54:46.986Z,33.40
2023-04-11T12:57:16.830Z,32.54
2023-04-11T12:59:46.284Z,32.27
2023-04-11T13:02:15.896Z,31.97
2023-04-11T13:04:45.600Z,32.09
2023-04-11T13:07:16.954Z,31.70
2023-04-11T13:09:46.382Z,31.83
2023-04-11T13:12:16.239Z,30.96
2023-04-11T13:14:50.844Z,30.59
2023-04-11T13:17:20.279Z,30.21
2023-04-11T13:19:49.406Z,29.96
2023-04-11T13:22:21.114Z,29.51
2023-04-11T13:25:01.768Z,29.34
2023-04-11T13:27:31.961Z,29.41
2023-04-11T13:30:01.275Z,29.60
2023-04-11T13:32:31.699Z,29.61
2023-04-11T13:35:00.964Z,29.70
2023-04-11T13:37:32.164Z,29.09
2023-04-11T13:40:06.436Z,29.17
2023-04-11T13:42:35.749Z,29.57
2023-04-11T13:45:05.175Z,29.66
2023-04-11T13:47:39.766Z,29.92
2023-04-11T13:50:11.110Z,29.67
2023-04-11T13:52:47.385Z,29.26
2023-04-11T13:55:16.662Z,29.55
2023-04-11T13:57:45.982Z,29.83
2023-04-11T14:00:22.361Z,30.42
2023-04-11T14:02:52.688Z,30.46
2023-04-11T14:05:26.390Z,30.71
2023-04-11T14:07:57.717Z,30.62
2023-04-11T14:10:27.855Z,31.03
2023-04-11T14:12:57.164Z,30.90
2023-04-11T14:15:37.741Z,30.66
2023-04-11T14:18:07.802Z,30.63
2023-04-11T14:20:37.189Z,30.44
2023-04-11T14:25:52.366Z,30.32
2023-04-11T14:28:21.710Z,30.53
2023-04-11T14:30:51.291Z,30.39
2023-04-11T14:33:27.310Z,30.13
2023-04-11T14:36:02.124Z,29.70
2023-04-11T14:38:33.644Z,29.67
2023-04-11T14:41:03.028Z,29.97
2023-04-11T14:43:32.644Z,29.48
2023-04-11T14:46:07.709Z,29.53
2023-04-11T14:48:37.060Z,29.76
2023-04-11T14:51:06.909Z,29.89
2023-04-11T14:53:38.263Z,29.94
2023-04-11T14:56:08.373Z,30.45
2023-04-11T15:01:19.695Z,30.45
2023-04-11T15:03:49.017Z,30.67
2023-04-11T15:06:18.403Z,30.69
2023-04-11T15:08:51.135Z,31.21
2023-04-11T15:11:31.300Z,31.93
2023-04-11T15:14:00.583Z,31.51
2023-04-11T15:16:29.845Z,31.69
2023-04-11T15:18:59.452Z,31.24
2023-04-11T15:21:28.661Z,31.42
2023-04-11T15:24:10.853Z,31.33
2023-04-11T15:26:40.353Z,31.67
2023-04-11T15:31:51.291Z,31.79
2023-04-11T15:34:22.967Z,32.13
2023-04-11T15:36:57.483Z,32.10
2023-04-11T15:39:28.799Z,33.01
2023-04-11T15:41:58.358Z,33.16
2023-04-11T15:44:27.670Z,33.54
2023-04-11T15:47:02.346Z,33.92
2023-04-11T15:49:31.744Z,33.97
2023-04-11T15:52:00.913Z,34.05
2023-04-11T15:54:37.456Z,34.49
2023-04-11T15:57:06.775Z,34.65
2023-04-11T15:59:37.691Z,35.22
2023-04-11T16:02:07.655Z,35.20
2023-04-11T16:04:38.745Z,35.31
2023-04-11T16:07:09.170Z,34.84
2023-04-11T16:09:40.382Z,35.02
2023-04-11T16:12:09.847Z,35.29
2023-04-11T16:14:39.179Z,35.27
2023-04-11T16:17:08.398Z,36.02
2023-04-11T16:19:38.287Z,36.21
2023-04-11T16:22:07.564Z,36.30
2023-04-11T16:24:36.847Z,36.31
2023-04-11T16:27:13.613Z,36.57
2023-04-11T16:29:43.689Z,37.01
2023-04-11T16:32:13.127Z,36.38
2023-04-11T16:37:26.328Z,36.85
2023-04-11T16:39:56.261Z,37.25
2023-04-11T16:42:27.705Z,37.50
2023-04-11T16:44:57.302Z,37.39
2023-04-11T16:47:27.125Z,37.64
2023-04-11T16:50:01.579Z,37.79
2023-04-11T16:52:32.694Z,38.16
2023-04-11T16:55:03.134Z,38.06
2023-04-11T16:57:35.200Z,38.28
2023-04-11T17:00:07.635Z,38.57
2023-04-11T17:02:37.330Z,38.46
2023-04-11T17:05:07.757Z,38.44
2023-04-11T17:07:37.685Z,38.73
2023-04-11T17:10:08.384Z,38.94
2023-04-11T17:12:39.700Z,38.76
2023-04-11T17:15:10.221Z,38.79
2023-04-11T17:17:44.686Z,39.35
2023-04-11T17:20:14.747Z,39.37
2023-04-11T17:22:44.598Z,39.34
2023-04-11T17:25:13.969Z,39.46
2023-04-11T17:27:45.543Z,39.53
2023-04-11T17:30:20.776Z,39.69
2023-04-11T17:32:50.174Z,39.84
2023-04-11T17:35:37.754Z,40.11
2023-04-11T17:38:07.117Z,40.61
2023-04-11T17:40:38.805Z,40.16
2023-04-11T17:43:15.125Z,40.77
2023-04-11T17:45:44.913Z,40.74
2023-04-11T17:48:14.254Z,41.22
2023-04-11T17:53:20.836Z,41.64
2023-04-11T17:55:51.715Z,41.83
2023-04-11T17:58:22.964Z,42.39
2023-04-11T18:00:56.559Z,42.62
2023-04-11T18:03:26.719Z,42.26
2023-04-11T18:05:56.606Z,42.47
2023-04-11T18:08:39.221Z,42.80
2023-04-11T18:11:15.695Z,42.85
2023-04-11T18:13:49.849Z,43.53
2023-04-11T18:16:20.032Z,43.80
2023-04-11T18:18:49.826Z,44.36
2023-04-11T18:21:26.589Z,44.14
2023-04-11T18:24:08.805Z,44.08
2023-04-11T18:26:38.190Z,44.38
2023-04-11T18:29:09.389Z,45.16
2023-04-11T18:31:46.188Z,44.90
2023-04-11T18:34:16.402Z,45.56
2023-04-11T18:36:46.882Z,45.67
2023-04-11T18:39:16.972Z,45.74
2023-04-11T18:41:46.869Z,46.04
2023-04-11T18:44:34.115Z,46.48
2023-04-11T18:47:05.954Z,46.49
2023-04-11T18:49:36.109Z,46.20
2023-04-11T18:52:05.537Z,47.02
2023-04-11T18:54:35.287Z,47.34
2023-04-11T18:57:13.471Z,47.62
2023-04-11T18:59:51.694Z,47.93
2023-04-11T19:02:22.144Z,47.48
2023-04-11T19:04:52.656Z,48.26
2023-04-11T19:07:23.061Z,48.99
2023-04-11T19:09:52.819Z,49.03
2023-04-11T19:12:22.224Z,49.30
2023-04-11T19:14:58.711Z,49.95
2023-04-11T19:17:28.512Z,49.72
2023-04-11T19:20:06.154Z,49.75
2023-04-11T19:22:40.416Z,49.64
2023-04-11T19:25:12.132Z,50.15
2023-04-11T19:27:43.410Z,51.18
2023-04-11T19:30:15.545Z,51.68
2023-04-11T19:32:47.012Z,51.31
2023-04-11T19:35:16.734Z,51.75
2023-04-11T19:37:51.215Z,52.34
2023-04-11T19:40:22.924Z,52.37
2023-04-11T19:42:52.453Z,53.19
2023-04-11T19:45:23.810Z,53.40
2023-04-11T19:47:53.222Z,53.13
2023-04-11T19:50:22.978Z,53.60
2023-04-11T19:52:58.549Z,54.34
2023-04-11T19:55:28.684Z,53.50
2023-04-11T19:57:57.899Z,53.78
2023-04-11T20:00:32.230Z,54.46
2023-04-11T20:03:02.274Z,54.15
2023-04-11T20:05:32.281Z,54.45
2023-04-11T20:08:01.460Z,54.67
2023-04-11T20:10:31.330Z,54.83
2023-04-11T20:13:00.800Z,55.02
2023-04-11T20:15:32.373Z,55.94
2023-04-11T20:18:07.129Z,55.31
2023-04-11T20:20:38.023Z,55.64
2023-04-11T20:23:07.338Z,55.94
2023-04-11T20:28:16.488Z,55.85
2023-04-11T20:30:58.861Z,56.42
2023-04-11T20:33:43.812Z,56.65
2023-04-11T20:36:15.201Z,55.88
2023-04-11T20:38:44.802Z,56.75
2023-04-11T20:41:29.987Z,56.95
2023-04-11T20:43:59.704Z,56.35
2023-04-11T20:46:31.231Z,57.28
2023-04-11T20:49:02.527Z,58.15
2023-04-11T20:51:50.968Z,57.23
2023-04-11T20:54:20.665Z,57.81
2023-04-11T20:56:49.919Z,57.75
2023-04-11T20:59:47.068Z,57.85
2023-04-11T21:02:18.960Z,58.42
2023-04-11T21:04:56.336Z,57.90
2023-04-11T21:07:25.983Z,57.99
2023-04-11T21:10:08.207Z,57.99
2023-04-11T21:12:38.184Z,57.74
2023-04-11T21:18:06.879Z,58.47
2023-04-11T21:20:36.921Z,58.60
2023-04-11T21:23:06.097Z,58.98
2023-04-11T21:25:35.662Z,59.02
2023-04-11T21:28:10.658Z,59.86
2023-04-11T21:30:41.889Z,59.03
2023-04-11T21:33:18.281Z,59.64
2023-04-11T21:35:47.636Z,59.11
2023-04-11T21:38:17.721Z,59.24
2023-04-11T21:40:47.809Z,59.31
2023-04-11T21:43:17.020Z,59.25
2023-04-11T21:45:46.382Z,59.90
2023-04-11T21:48:17.613Z,59.92
2023-04-11T21:50:48.034Z,60.44
2023-04-11T21:53:22.337Z,60.41
2023-04-11T21:56:04.480Z,60.55
2023-04-11T21:58:50.246Z,61.51
2023-04-11T22:01:23.512Z,60.78
2023-04-11T22:06:31.903Z,60.25
2023-04-11T22:09:09.699Z,60.78
2023-04-11T22:11:53.934Z,61.31
2023-04-11T22:14:27.371Z,60.95
2023-04-11T22:16:57.901Z,60.96
2023-04-11T22:19:29.278Z,61.40
2023-04-11T22:22:02.881Z,61.07
2023-04-11T22:24:32.259Z,61.08
2023-04-11T22:27:03.813Z,60.79
2023-04-11T22:29:34.192Z,60.19
2023-04-11T22:32:03.841Z,60.48
2023-04-11T22:35:05.426Z,60.31
2023-04-11T22:37:53.307Z,60.06
2023-04-11T22:40:23.395Z,59.80
2023-04-11T22:42:52.993Z,59.37
2023-04-11T22:45:36.974Z,58.89
2023-04-11T22:48:06.942Z,59.12
2023-04-11T22:53:27.550Z,58.67
2023-04-11T22:56:26.716Z,59.63
2023-04-11T22:59:14.828Z,58.40
2023-04-11T23:01:44.440Z,58.47
2023-04-11T23:04:13.663Z,59.16
2023-04-11T23:06:45.319Z,59.50
2023-04-11T23:09:14.679Z,59.46
2023-04-11T23:11:45.111Z,59.51
2023-04-11T23:14:15.036Z,59.94
2023-04-11T23:16:44.526Z,59.80
2023-04-11T23:19:13.706Z,60.37
2023-04-11T23:21:46.201Z,60.45
2023-04-11T23:24:16.453Z,60.53
2023-04-11T23:26:46.354Z,60.52
2023-04-11T23:29:15.411Z,60.29
2023-04-11T23:31:44.486Z,60.31
2023-04-11T23:34:13.655Z,60.32
2023-04-11T23:36:45.061Z,59.80
2023-04-11T23:39:14.485Z,59.44
2023-04-11T23:41:44.322Z,59.60
2023-04-11T23:44:13.441Z,59.05
2023-04-11T23:46:42.633Z,58.59
2023-04-11T23:49:12.056Z,58.10
2023-04-11T23:51:41.256Z,57.82
2023-04-11T23:54:17.849Z,57.97
2023-04-11T23:56:47.064Z,57.85
